Historyczne dane pomiarowe

Dodano dane terminowe – wersja testowa.

Dane z okresu 1951-2019

Wersja bazy: 1.34 [2019-03-16, lista zmian], aktualizacja planowana na 2019-04-15

Dane meteo z obszaru Polski uzyskane na podstawie danych udostępnionych przez Instytut Meteorologii i Gospodarki Wodnej – Państwowy Instytut Badawczy.

 

Wybierz Datę:    

       

TemperaturaWilgotnośćWiatrCiśnienieOpadyŚniegCzas trwania zjawisk
 Stacja t tx tn tng RH VA  wxwx mslp ppp RRR   cm mm wxwxwxwxwxwxwx
1987-08-14 12.3 18.1 6.9--- 6.7----- 1.6------------
1987-08-13 12.0 17.8 3.8--- 2.7----- 0.0------------
1987-08-12 11.7 17.4 5.9--- 2.7----- 0.0------------
1987-08-11 12.6 15.6 10.8--- 4.0----- 1.2------------
1987-08-10 14.2 18.7 12.7--- 8.0----- 3.0------------
1987-08-09 17.2 22.9 10.3--- 5.7----- 5.8------------
1987-08-08 14.3 20.9 9.3--- 4.0----- 0.0------------
1987-08-07 11.5 17.3 5.7--- 4.7----- 0.0------------
1987-08-06 11.3 15.6 8.4--- 4.7----- 0.0------------
1987-08-05 11.5 17.7 5.8--- 5.0----- 0.0------------
1987-08-04 12.9 16.5 10.5--- 8.0----- 0.6------------
1987-08-03 13.5 18.1 10.3--- 8.0----- 0.0------------
1987-08-02 13.2 17.6 10.6--- 8.0----- 3.0------------
1987-08-01 15.2 19.4 11.3--- 8.0----- 4.0------------
1987-07-31 15.2 20.0 13.4--- 8.0----- 2.7------------
1987-07-30 17.1 24.1 8.2--- 8.0----- 10.0------------
1987-07-29 13.3 18.4 10.6--- 8.0----- 0.9------------
1987-07-28 13.5 16.6 11.8--- 8.0----- 2.0------------
1987-07-27 11.4 17.1 7.5--- 3.3----- 6.0------------
1987-07-26 12.5 16.1 10.9--- 5.0----- 0.0------------
1987-07-25 17.9 22.1 16.0--- 4.0----- 0.4------------
1987-07-24 19.9 25.1 14.3--- 3.0----- 0.0------------
1987-07-23 19.3 26.8 10.9--- 1.3----- 0.0------------
1987-07-22 18.5 21.4 16.7--- 3.0----- 0.0------------
1987-07-21 18.4 24.4 10.1--- 4.3----- 5.6------------
1987-07-20 17.8 21.1 15.9--- 4.3----- 0.0------------
1987-07-19 18.5 24.6 17.9--- 4.7----- 5.5------------
1987-07-18 21.5 25.3 16.7--- 5.0----- 0.0------------
1987-07-17 20.9 28.1 15.5--- 5.3----- 3.7------------
1987-07-16 19.7 26.6 11.4--- 2.0----- 0.0------------
1987-07-15 16.3 22.4 9.0--- 3.0----- 0.0------------
1987-07-14 15.0 20.5 6.7--- 5.0----- 0.0------------
1987-07-13 15.8 19.9 10.8--- 6.0----- 0.0------------
1987-07-12 19.8 27.7 13.1--- 8.0----- 8.0------------
1987-07-11 15.9 22.1 7.7--- 4.3 4.3---- 0.0------------
1987-07-10 13.3 17.6 9.2--- 6.3 3.3---- 0.0------------
1987-07-09 16.5 22.9 14.9--- 8.0 2.3---- 3.8------------
1987-07-08 21.4 28.4 13.6--- 6.0 4.3---- 4.6------------
1987-07-07 19.4 26.5 10.4--- 2.7 2.0---- 0.0------------
1987-07-06 18.4 24.1 8.5--- 3.7 2.0---- 0.0------------
1987-07-05 16.6 20.4 11.7--- 2.7 2.0---- 0.0------------
1987-07-04 17.8 22.7 14.0--- 3.0 1.7---- 0.5------------
1987-07-03 19.1 23.7 13.7--- 4.0 0.7---- 0.0------------
1987-07-02 18.3 21.4 16.7--- 1.0 1.0---- 0.5------------
1987-07-01 23.7 30.6 19.3--- 2.0 1.0---- 0.0------------
1987-06-30 23.5 29.9 15.7--- 1.0 0.3---- 0.0------------
1987-06-29 20.0 24.8 13.9--- 2.0 1.3---- 0.0------------
1987-06-28 17.5 23.1 12.2--- 4.7 2.7---- 0.7------------
1987-06-27 17.0 20.2 15.0--- 2.3 2.3---- 0.0------------
1987-06-26 16.0 22.8 8.7--- 3.7 2.3---- 9.0------------
1987-06-25 13.6 17.3 11.8--- 4.3 1.7---- 0.0------------
1987-06-24 15.1 19.5 12.1--- 4.3 1.3---- 4.4------------
1987-06-23 15.4 19.6 12.3--- 3.0 1.3---- 0.0------------
1987-06-22 15.4 21.6 9.9--- 4.7 3.0---- 16.0------------
1987-06-21 18.1 24.3 9.8--- 4.3 0.7---- 0.0------------
1987-06-20 15.0 21.7 7.2--- 3.0 1.0---- 1.2------------
1987-06-19 12.1 17.4 6.0--- 3.7 1.3---- 0.0------------
1987-06-18 9.8 15.5 4.6--- 6.0 3.7---- 2.0------------
1987-06-17 11.3 14.6 8.7--- 4.7 2.7---- 0.0------------
1987-06-16 12.3 23.1 9.3--- 8.0 3.7---- 2.3------------
678.5 ms

 

Źródłem pochodzenia danych jest Instytut Meteorologii i Gospodarki Wodnej – Państwowy Instytut Badawczy. Dane Instytutu Meteorologii i Gospodarki Wodnej – Państwowego Instytutu Badawczego zostały przetworzone.

Dane źródłowe można odnaleźć na stronie https://dane.imgw.pl